Terminal Aerodrome Forecast
Issued by NWS

Home | Current Version | Previous Version | Text Only | Print | Product List | Glossary On
Versions: 1 2 3 4 5 6 7 8 9 10 11 12 13 14 15 16 17 18 19 20 21 22 23 24 25 26
539
FTAK31 PANC 281757
TAFAIL
TAF
PAIL 281757Z 2818/2918 25005KT P6SM BKN080
     FM282200 24011G18KT P6SM -SHRA SCT025 OVC050
     FM290600 24006KT P6SM BKN060
     FM291200 VRB04KT 5SM BR BKN010 OVC020=

USA.gov is the U.S. government's official web portal to all federal, state and local government web resources and services.